sensor_id;sensor_type;location;lat;lon;timestamp;P1;durP1;ratioP1;P2;durP2;ratioP2
46198;SDS011;31928;52.104;10.030;2022-08-25T00:02:11;2.90;;;2.20;;
46198;SDS011;31928;52.104;10.030;2022-08-25T00:04:38;3.08;;;2.78;;
46198;SDS011;31928;52.104;10.030;2022-08-25T00:07:07;2.63;;;2.42;;
46198;SDS011;31928;52.104;10.030;2022-08-25T00:09:34;2.50;;;2.30;;
46198;SDS011;31928;52.104;10.030;2022-08-25T00:12:01;3.78;;;3.17;;
46198;SDS011;31928;52.104;10.030;2022-08-25T00:14:31;3.33;;;2.72;;
46198;SDS011;31928;52.104;10.030;2022-08-25T00:17:00;2.60;;;2.40;;
46198;SDS011;31928;52.104;10.030;2022-08-25T00:19:32;2.65;;;2.45;;
46198;SDS011;31928;52.104;10.030;2022-08-25T00:22:00;2.80;;;2.60;;
46198;SDS011;31928;52.104;10.030;2022-08-25T00:24:28;2.45;;;2.25;;
46198;SDS011;31928;52.104;10.030;2022-08-25T00:26:55;5.75;;;2.70;;
46198;SDS011;31928;52.104;10.030;2022-08-25T00:29:24;3.00;;;2.70;;
46198;SDS011;31928;52.104;10.030;2022-08-25T00:31:52;3.03;;;2.72;;
46198;SDS011;31928;52.104;10.030;2022-08-25T00:34:21;2.55;;;2.35;;
46198;SDS011;31928;52.104;10.030;2022-08-25T00:36:52;2.72;;;2.53;;
46198;SDS011;31928;52.104;10.030;2022-08-25T00:39:19;3.58;;;2.70;;
46198;SDS011;31928;52.104;10.030;2022-08-25T00:41:48;3.20;;;2.83;;
46198;SDS011;31928;52.104;10.030;2022-08-25T00:44:16;3.60;;;3.03;;
46198;SDS011;31928;52.104;10.030;2022-08-25T00:46:46;2.85;;;2.42;;
46198;SDS011;31928;52.104;10.030;2022-08-25T00:49:24;3.17;;;2.88;;
46198;SDS011;31928;52.104;10.030;2022-08-25T00:52:05;3.45;;;2.90;;
46198;SDS011;31928;52.104;10.030;2022-08-25T00:54:44;3.10;;;2.80;;
46198;SDS011;31928;52.104;10.030;2022-08-25T00:57:16;3.53;;;3.05;;
46198;SDS011;31928;52.104;10.030;2022-08-25T00:59:59;3.65;;;2.92;;
46198;SDS011;31928;52.104;10.030;2022-08-25T01:02:30;3.08;;;2.78;;
46198;SDS011;31928;52.104;10.030;2022-08-25T01:04:56;2.83;;;2.58;;
46198;SDS011;31928;52.104;10.030;2022-08-25T01:07:24;2.90;;;2.60;;
46198;SDS011;31928;52.104;10.030;2022-08-25T01:09:50;3.58;;;2.95;;
46198;SDS011;31928;52.104;10.030;2022-08-25T01:12:18;3.20;;;2.90;;
46198;SDS011;31928;52.104;10.030;2022-08-25T01:14:45;3.38;;;3.08;;
46198;SDS011;31928;52.104;10.030;2022-08-25T01:17:13;3.33;;;3.00;;
46198;SDS011;31928;52.104;10.030;2022-08-25T01:19:42;3.35;;;2.88;;
46198;SDS011;31928;52.104;10.030;2022-08-25T01:22:09;3.20;;;2.92;;
46198;SDS011;31928;52.104;10.030;2022-08-25T01:24:39;3.45;;;2.92;;
46198;SDS011;31928;52.104;10.030;2022-08-25T01:27:10;3.55;;;2.97;;
46198;SDS011;31928;52.104;10.030;2022-08-25T01:29:37;3.33;;;2.88;;
46198;SDS011;31928;52.104;10.030;2022-08-25T01:32:05;3.20;;;2.90;;
46198;SDS011;31928;52.104;10.030;2022-08-25T01:34:35;3.60;;;3.25;;
46198;SDS011;31928;52.104;10.030;2022-08-25T01:37:06;3.08;;;2.88;;
46198;SDS011;31928;52.104;10.030;2022-08-25T01:39:38;3.40;;;3.10;;
46198;SDS011;31928;52.104;10.030;2022-08-25T01:44:38;3.25;;;2.78;;
46198;SDS011;31928;52.104;10.030;2022-08-25T01:47:07;3.13;;;2.80;;
46198;SDS011;31928;52.104;10.030;2022-08-25T01:49:35;3.53;;;2.65;;
46198;SDS011;31928;52.104;10.030;2022-08-25T01:52:06;3.28;;;2.78;;
46198;SDS011;31928;52.104;10.030;2022-08-25T01:54:38;3.53;;;2.80;;
46198;SDS011;31928;52.104;10.030;2022-08-25T01:57:04;2.80;;;2.40;;
46198;SDS011;31928;52.104;10.030;2022-08-25T01:59:32;3.00;;;2.60;;
46198;SDS011;31928;52.104;10.030;2022-08-25T02:01:58;3.15;;;2.80;;
46198;SDS011;31928;52.104;10.030;2022-08-25T02:04:26;3.08;;;2.40;;
46198;SDS011;31928;52.104;10.030;2022-08-25T02:06:58;4.30;;;2.38;;
46198;SDS011;31928;52.104;10.030;2022-08-25T02:09:26;2.60;;;2.40;;
46198;SDS011;31928;52.104;10.030;2022-08-25T02:11:53;3.40;;;3.10;;
46198;SDS011;31928;52.104;10.030;2022-08-25T02:14:20;3.20;;;2.90;;
46198;SDS011;31928;52.104;10.030;2022-08-25T02:16:47;4.40;;;4.00;;
46198;SDS011;31928;52.104;10.030;2022-08-25T02:19:17;3.55;;;2.80;;
46198;SDS011;31928;52.104;10.030;2022-08-25T02:21:45;3.33;;;3.03;;
46198;SDS011;31928;52.104;10.030;2022-08-25T02:24:12;3.50;;;2.88;;
46198;SDS011;31928;52.104;10.030;2022-08-25T02:26:39;3.35;;;3.05;;
46198;SDS011;31928;52.104;10.030;2022-08-25T02:29:07;3.05;;;2.78;;
46198;SDS011;31928;52.104;10.030;2022-08-25T02:31:34;2.80;;;2.60;;
46198;SDS011;31928;52.104;10.030;2022-08-25T02:34:01;3.10;;;2.88;;
46198;SDS011;31928;52.104;10.030;2022-08-25T02:36:29;4.18;;;3.22;;
46198;SDS011;31928;52.104;10.030;2022-08-25T02:38:57;2.78;;;2.58;;
46198;SDS011;31928;52.104;10.030;2022-08-25T02:41:24;3.53;;;3.15;;
46198;SDS011;31928;52.104;10.030;2022-08-25T02:43:56;2.95;;;2.75;;
46198;SDS011;31928;52.104;10.030;2022-08-25T02:46:24;3.65;;;3.03;;
46198;SDS011;31928;52.104;10.030;2022-08-25T02:48:51;3.08;;;2.65;;
46198;SDS011;31928;52.104;10.030;2022-08-25T02:51:21;4.05;;;3.65;;
46198;SDS011;31928;52.104;10.030;2022-08-25T02:53:49;3.28;;;2.97;;
46198;SDS011;31928;52.104;10.030;2022-08-25T02:56:16;3.30;;;3.10;;
46198;SDS011;31928;52.104;10.030;2022-08-25T02:58:44;3.00;;;2.80;;
46198;SDS011;31928;52.104;10.030;2022-08-25T03:01:12;3.13;;;2.83;;
46198;SDS011;31928;52.104;10.030;2022-08-25T03:03:40;3.40;;;3.08;;
46198;SDS011;31928;52.104;10.030;2022-08-25T03:06:09;3.58;;;3.28;;
46198;SDS011;31928;52.104;10.030;2022-08-25T03:08:39;3.47;;;3.00;;
46198;SDS011;31928;52.104;10.030;2022-08-25T03:11:07;3.67;;;2.95;;
46198;SDS011;31928;52.104;10.030;2022-08-25T03:13:35;2.90;;;2.70;;
46198;SDS011;31928;52.104;10.030;2022-08-25T03:16:03;3.90;;;3.45;;
46198;SDS011;31928;52.104;10.030;2022-08-25T03:18:36;3.25;;;2.80;;
46198;SDS011;31928;52.104;10.030;2022-08-25T03:21:05;4.53;;;2.83;;
46198;SDS011;31928;52.104;10.030;2022-08-25T03:23:32;3.30;;;3.05;;
46198;SDS011;31928;52.104;10.030;2022-08-25T03:25:59;3.60;;;3.30;;
46198;SDS011;31928;52.104;10.030;2022-08-25T03:28:44;3.38;;;3.08;;
46198;SDS011;31928;52.104;10.030;2022-08-25T03:31:11;4.65;;;3.40;;
46198;SDS011;31928;52.104;10.030;2022-08-25T03:33:38;3.85;;;3.47;;
46198;SDS011;31928;52.104;10.030;2022-08-25T03:36:06;3.25;;;2.95;;
46198;SDS011;31928;52.104;10.030;2022-08-25T03:38:33;3.90;;;3.20;;
46198;SDS011;31928;52.104;10.030;2022-08-25T03:41:12;3.78;;;3.47;;
46198;SDS011;31928;52.104;10.030;2022-08-25T03:43:40;3.40;;;3.10;;
46198;SDS011;31928;52.104;10.030;2022-08-25T03:46:08;3.15;;;2.90;;
46198;SDS011;31928;52.104;10.030;2022-08-25T03:48:42;3.50;;;3.20;;
46198;SDS011;31928;52.104;10.030;2022-08-25T03:51:08;4.35;;;3.42;;
46198;SDS011;31928;52.104;10.030;2022-08-25T03:53:35;4.18;;;3.40;;
46198;SDS011;31928;52.104;10.030;2022-08-25T03:56:01;3.60;;;3.30;;
46198;SDS011;31928;52.104;10.030;2022-08-25T03:58:28;3.22;;;2.92;;
46198;SDS011;31928;52.104;10.030;2022-08-25T04:00:55;4.15;;;3.75;;
46198;SDS011;31928;52.104;10.030;2022-08-25T04:03:25;3.83;;;3.28;;
46198;SDS011;31928;52.104;10.030;2022-08-25T04:05:52;3.65;;;3.35;;
46198;SDS011;31928;52.104;10.030;2022-08-25T04:08:21;4.80;;;3.05;;
46198;SDS011;31928;52.104;10.030;2022-08-25T04:10:50;3.50;;;3.20;;
46198;SDS011;31928;52.104;10.030;2022-08-25T04:13:17;3.33;;;3.13;;
46198;SDS011;31928;52.104;10.030;2022-08-25T04:15:44;5.00;;;4.05;;
46198;SDS011;31928;52.104;10.030;2022-08-25T04:20:39;3.30;;;3.00;;
46198;SDS011;31928;52.104;10.030;2022-08-25T04:23:12;3.35;;;3.05;;
46198;SDS011;31928;52.104;10.030;2022-08-25T04:25:39;3.50;;;3.20;;
46198;SDS011;31928;52.104;10.030;2022-08-25T04:28:11;3.35;;;3.05;;
46198;SDS011;31928;52.104;10.030;2022-08-25T04:30:40;4.32;;;3.38;;
46198;SDS011;31928;52.104;10.030;2022-08-25T04:33:08;3.08;;;2.88;;
46198;SDS011;31928;52.104;10.030;2022-08-25T04:35:35;4.10;;;3.70;;
46198;SDS011;31928;52.104;10.030;2022-08-25T04:38:03;4.07;;;2.95;;
46198;SDS011;31928;52.104;10.030;2022-08-25T04:40:30;4.10;;;2.83;;
46198;SDS011;31928;52.104;10.030;2022-08-25T04:42:58;3.33;;;3.03;;
46198;SDS011;31928;52.104;10.030;2022-08-25T04:45:25;3.75;;;2.80;;
46198;SDS011;31928;52.104;10.030;2022-08-25T04:47:52;3.13;;;2.80;;
46198;SDS011;31928;52.104;10.030;2022-08-25T04:50:20;3.20;;;3.00;;
46198;SDS011;31928;52.104;10.030;2022-08-25T04:52:46;3.90;;;3.30;;
46198;SDS011;31928;52.104;10.030;2022-08-25T04:55:14;3.80;;;3.30;;
46198;SDS011;31928;52.104;10.030;2022-08-25T04:57:41;3.90;;;3.50;;
46198;SDS011;31928;52.104;10.030;2022-08-25T05:00:08;5.43;;;2.95;;
46198;SDS011;31928;52.104;10.030;2022-08-25T05:02:36;6.72;;;4.50;;
46198;SDS011;31928;52.104;10.030;2022-08-25T05:05:03;6.00;;;3.28;;
46198;SDS011;31928;52.104;10.030;2022-08-25T05:07:30;5.28;;;3.65;;
46198;SDS011;31928;52.104;10.030;2022-08-25T05:09:56;6.32;;;3.13;;
46198;SDS011;31928;52.104;10.030;2022-08-25T05:12:23;5.07;;;3.30;;
46198;SDS011;31928;52.104;10.030;2022-08-25T05:14:54;4.55;;;2.95;;
46198;SDS011;31928;52.104;10.030;2022-08-25T05:17:20;4.35;;;3.92;;
46198;SDS011;31928;52.104;10.030;2022-08-25T05:19:47;5.32;;;3.40;;
46198;SDS011;31928;52.104;10.030;2022-08-25T05:22:14;3.42;;;3.13;;
46198;SDS011;31928;52.104;10.030;2022-08-25T05:24:41;6.47;;;4.13;;
46198;SDS011;31928;52.104;10.030;2022-08-25T05:27:07;4.50;;;3.67;;
46198;SDS011;31928;52.104;10.030;2022-08-25T05:29:34;3.33;;;3.03;;
46198;SDS011;31928;52.104;10.030;2022-08-25T05:32:00;4.20;;;3.22;;
46198;SDS011;31928;52.104;10.030;2022-08-25T05:34:27;6.50;;;4.03;;
46198;SDS011;31928;52.104;10.030;2022-08-25T05:36:55;7.22;;;3.83;;
46198;SDS011;31928;52.104;10.030;2022-08-25T05:39:25;5.68;;;3.67;;
46198;SDS011;31928;52.104;10.030;2022-08-25T05:41:52;7.68;;;4.03;;
46198;SDS011;31928;52.104;10.030;2022-08-25T05:44:18;9.98;;;4.05;;
46198;SDS011;31928;52.104;10.030;2022-08-25T05:46:46;9.55;;;4.45;;
46198;SDS011;31928;52.104;10.030;2022-08-25T05:49:13;7.07;;;4.55;;
46198;SDS011;31928;52.104;10.030;2022-08-25T05:51:39;6.88;;;3.85;;
46198;SDS011;31928;52.104;10.030;2022-08-25T05:54:06;8.13;;;3.95;;
46198;SDS011;31928;52.104;10.030;2022-08-25T05:56:33;6.90;;;3.85;;
46198;SDS011;31928;52.104;10.030;2022-08-25T05:58:59;5.53;;;4.05;;
46198;SDS011;31928;52.104;10.030;2022-08-25T06:01:30;5.13;;;4.00;;
46198;SDS011;31928;52.104;10.030;2022-08-25T06:04:15;4.60;;;3.90;;
46198;SDS011;31928;52.104;10.030;2022-08-25T06:06:43;5.97;;;4.05;;
46198;SDS011;31928;52.104;10.030;2022-08-25T06:09:09;6.05;;;4.68;;
46198;SDS011;31928;52.104;10.030;2022-08-25T06:11:37;5.82;;;4.65;;
46198;SDS011;31928;52.104;10.030;2022-08-25T06:14:06;5.63;;;5.00;;
46198;SDS011;31928;52.104;10.030;2022-08-25T06:16:34;8.30;;;5.00;;
46198;SDS011;31928;52.104;10.030;2022-08-25T06:19:00;6.72;;;5.40;;
46198;SDS011;31928;52.104;10.030;2022-08-25T06:21:27;9.70;;;5.00;;
46198;SDS011;31928;52.104;10.030;2022-08-25T06:23:54;5.45;;;4.88;;
46198;SDS011;31928;52.104;10.030;2022-08-25T06:26:21;8.85;;;5.43;;
46198;SDS011;31928;52.104;10.030;2022-08-25T06:28:49;7.10;;;5.10;;
46198;SDS011;31928;52.104;10.030;2022-08-25T06:31:16;10.35;;;6.80;;
46198;SDS011;31928;52.104;10.030;2022-08-25T06:33:44;7.95;;;5.90;;
46198;SDS011;31928;52.104;10.030;2022-08-25T06:36:11;8.00;;;6.35;;
46198;SDS011;31928;52.104;10.030;2022-08-25T06:38:38;6.75;;;5.63;;
46198;SDS011;31928;52.104;10.030;2022-08-25T06:41:05;6.90;;;6.20;;
46198;SDS011;31928;52.104;10.030;2022-08-25T06:43:33;6.57;;;5.88;;
46198;SDS011;31928;52.104;10.030;2022-08-25T06:46:14;6.95;;;6.35;;
46198;SDS011;31928;52.104;10.030;2022-08-25T06:48:43;6.10;;;5.50;;
46198;SDS011;31928;52.104;10.030;2022-08-25T06:51:11;5.65;;;5.15;;
46198;SDS011;31928;52.104;10.030;2022-08-25T06:53:40;8.27;;;7.03;;
46198;SDS011;31928;52.104;10.030;2022-08-25T06:56:09;6.25;;;5.65;;
46198;SDS011;31928;52.104;10.030;2022-08-25T06:58:36;6.57;;;5.93;;
46198;SDS011;31928;52.104;10.030;2022-08-25T07:01:11;7.03;;;6.32;;
46198;SDS011;31928;52.104;10.030;2022-08-25T07:03:47;6.90;;;5.88;;
46198;SDS011;31928;52.104;10.030;2022-08-25T07:06:17;5.93;;;5.32;;
46198;SDS011;31928;52.104;10.030;2022-08-25T07:08:47;7.25;;;6.55;;
46198;SDS011;31928;52.104;10.030;2022-08-25T07:11:14;7.63;;;6.93;;
46198;SDS011;31928;52.104;10.030;2022-08-25T07:13:43;7.55;;;6.85;;
46198;SDS011;31928;52.104;10.030;2022-08-25T07:16:10;6.68;;;6.15;;
46198;SDS011;31928;52.104;10.030;2022-08-25T07:18:37;7.38;;;6.70;;
46198;SDS011;31928;52.104;10.030;2022-08-25T07:21:04;8.82;;;6.75;;
46198;SDS011;31928;52.104;10.030;2022-08-25T07:23:34;6.70;;;6.13;;
46198;SDS011;31928;52.104;10.030;2022-08-25T07:28:52;7.18;;;6.50;;
46198;SDS011;31928;52.104;10.030;2022-08-25T07:31:19;7.80;;;6.95;;
46198;SDS011;31928;52.104;10.030;2022-08-25T07:33:54;7.43;;;6.65;;
46198;SDS011;31928;52.104;10.030;2022-08-25T07:36:41;7.00;;;6.38;;
46198;SDS011;31928;52.104;10.030;2022-08-25T07:39:08;7.05;;;6.45;;
46198;SDS011;31928;52.104;10.030;2022-08-25T07:41:36;7.10;;;6.40;;
46198;SDS011;31928;52.104;10.030;2022-08-25T07:44:05;6.70;;;6.13;;
46198;SDS011;31928;52.104;10.030;2022-08-25T07:46:32;8.05;;;6.68;;
46198;SDS011;31928;52.104;10.030;2022-08-25T07:48:59;7.68;;;6.93;;
46198;SDS011;31928;52.104;10.030;2022-08-25T07:51:26;7.32;;;6.63;;
46198;SDS011;31928;52.104;10.030;2022-08-25T07:54:12;7.20;;;6.03;;
46198;SDS011;31928;52.104;10.030;2022-08-25T07:56:40;6.47;;;5.88;;
46198;SDS011;31928;52.104;10.030;2022-08-25T07:59:08;7.47;;;6.43;;
46198;SDS011;31928;52.104;10.030;2022-08-25T08:01:37;7.68;;;6.45;;
46198;SDS011;31928;52.104;10.030;2022-08-25T08:04:06;7.03;;;6.45;;
46198;SDS011;31928;52.104;10.030;2022-08-25T08:06:32;8.30;;;6.40;;
46198;SDS011;31928;52.104;10.030;2022-08-25T08:08:59;7.25;;;6.53;;
46198;SDS011;31928;52.104;10.030;2022-08-25T08:11:29;6.75;;;6.15;;
46198;SDS011;31928;52.104;10.030;2022-08-25T08:14:00;7.30;;;6.57;;
46198;SDS011;31928;52.104;10.030;2022-08-25T08:16:27;7.93;;;6.13;;
46198;SDS011;31928;52.104;10.030;2022-08-25T08:18:56;7.95;;;6.45;;
46198;SDS011;31928;52.104;10.030;2022-08-25T08:21:28;7.18;;;6.25;;
46198;SDS011;31928;52.104;10.030;2022-08-25T08:23:58;6.97;;;5.97;;
46198;SDS011;31928;52.104;10.030;2022-08-25T08:26:26;6.97;;;6.38;;
46198;SDS011;31928;52.104;10.030;2022-08-25T08:29:13;6.68;;;6.07;;
46198;SDS011;31928;52.104;10.030;2022-08-25T08:31:41;8.18;;;6.57;;
46198;SDS011;31928;52.104;10.030;2022-08-25T08:34:14;7.35;;;6.10;;
46198;SDS011;31928;52.104;10.030;2022-08-25T08:36:41;7.15;;;6.43;;
46198;SDS011;31928;52.104;10.030;2022-08-25T08:39:10;6.13;;;5.57;;
46198;SDS011;31928;52.104;10.030;2022-08-25T08:41:53;6.95;;;6.38;;
46198;SDS011;31928;52.104;10.030;2022-08-25T08:53:10;6.45;;;5.82;;
46198;SDS011;31928;52.104;10.030;2022-08-25T08:55:48;5.82;;;5.32;;
46198;SDS011;31928;52.104;10.030;2022-08-25T08:58:23;7.78;;;5.82;;
46198;SDS011;31928;52.104;10.030;2022-08-25T09:00:59;8.40;;;6.93;;
46198;SDS011;31928;52.104;10.030;2022-08-25T09:06:11;5.88;;;5.25;;
46198;SDS011;31928;52.104;10.030;2022-08-25T09:08:42;5.78;;;5.32;;
46198;SDS011;31928;52.104;10.030;2022-08-25T09:11:12;5.85;;;5.30;;
46198;SDS011;31928;52.104;10.030;2022-08-25T09:30:54;6.53;;;5.93;;
46198;SDS011;31928;52.104;10.030;2022-08-25T09:33:25;5.60;;;5.10;;
46198;SDS011;31928;52.104;10.030;2022-08-25T09:35:55;7.10;;;5.68;;
46198;SDS011;31928;52.104;10.030;2022-08-25T09:38:23;6.32;;;5.72;;
46198;SDS011;31928;52.104;10.030;2022-08-25T09:40:55;6.50;;;5.95;;
46198;SDS011;31928;52.104;10.030;2022-08-25T09:46:16;5.43;;;4.93;;
46198;SDS011;31928;52.104;10.030;2022-08-25T09:48:53;5.70;;;5.20;;
46198;SDS011;31928;52.104;10.030;2022-08-25T09:51:29;6.43;;;5.78;;
46198;SDS011;31928;52.104;10.030;2022-08-25T09:57:14;7.15;;;6.07;;
46198;SDS011;31928;52.104;10.030;2022-08-25T09:59:35;6.70;;;6.10;;
46198;SDS011;31928;52.104;10.030;2022-08-25T10:02:04;6.70;;;5.30;;
46198;SDS011;31928;52.104;10.030;2022-08-25T10:07:19;7.47;;;5.30;;
46198;SDS011;31928;52.104;10.030;2022-08-25T10:09:52;6.13;;;5.53;;
46198;SDS011;31928;52.104;10.030;2022-08-25T10:12:23;5.43;;;5.03;;
46198;SDS011;31928;52.104;10.030;2022-08-25T10:19:43;6.78;;;4.47;;
46198;SDS011;31928;52.104;10.030;2022-08-25T10:22:11;4.88;;;4.45;;
46198;SDS011;31928;52.104;10.030;2022-08-25T10:24:45;6.40;;;5.47;;
46198;SDS011;31928;52.104;10.030;2022-08-25T10:30:05;4.97;;;4.47;;
46198;SDS011;31928;52.104;10.030;2022-08-25T10:32:58;5.80;;;5.30;;
46198;SDS011;31928;52.104;10.030;2022-08-25T10:38:34;5.05;;;4.55;;
46198;SDS011;31928;52.104;10.030;2022-08-25T10:43:56;5.68;;;5.10;;
46198;SDS011;31928;52.104;10.030;2022-08-25T10:47:07;5.78;;;5.10;;
46198;SDS011;31928;52.104;10.030;2022-08-25T10:49:41;5.10;;;4.57;;
46198;SDS011;31928;52.104;10.030;2022-08-25T10:52:18;8.65;;;5.15;;
46198;SDS011;31928;52.104;10.030;2022-08-25T10:57:35;4.78;;;4.38;;
46198;SDS011;31928;52.104;10.030;2022-08-25T11:00:19;4.82;;;4.43;;
46198;SDS011;31928;52.104;10.030;2022-08-25T11:03:17;5.38;;;4.30;;
46198;SDS011;31928;52.104;10.030;2022-08-25T11:08:35;5.13;;;4.63;;
46198;SDS011;31928;52.104;10.030;2022-08-25T11:11:19;5.53;;;5.03;;
46198;SDS011;31928;52.104;10.030;2022-08-25T11:14:03;5.15;;;4.72;;
46198;SDS011;31928;52.104;10.030;2022-08-25T11:19:19;7.03;;;4.72;;
46198;SDS011;31928;52.104;10.030;2022-08-25T11:21:55;5.38;;;4.88;;
46198;SDS011;31928;52.104;10.030;2022-08-25T11:24:40;6.47;;;4.97;;
46198;SDS011;31928;52.104;10.030;2022-08-25T11:27:20;6.00;;;5.15;;
46198;SDS011;31928;52.104;10.030;2022-08-25T11:29:58;5.60;;;4.32;;
46198;SDS011;31928;52.104;10.030;2022-08-25T11:32:32;5.30;;;4.65;;
46198;SDS011;31928;52.104;10.030;2022-08-25T11:35:01;5.93;;;4.47;;
46198;SDS011;31928;52.104;10.030;2022-08-25T11:37:30;5.90;;;4.80;;
46198;SDS011;31928;52.104;10.030;2022-08-25T11:46:33;5.43;;;4.93;;
46198;SDS011;31928;52.104;10.030;2022-08-25T11:51:44;4.97;;;4.47;;
46198;SDS011;31928;52.104;10.030;2022-08-25T11:57:00;7.32;;;5.20;;
46198;SDS011;31928;52.104;10.030;2022-08-25T12:02:29;5.75;;;4.43;;
46198;SDS011;31928;52.104;10.030;2022-08-25T12:04:56;4.25;;;3.95;;
46198;SDS011;31928;52.104;10.030;2022-08-25T12:07:25;6.68;;;4.22;;
46198;SDS011;31928;52.104;10.030;2022-08-25T12:15:22;6.90;;;4.93;;
46198;SDS011;31928;52.104;10.030;2022-08-25T12:18:15;4.60;;;4.30;;
46198;SDS011;31928;52.104;10.030;2022-08-25T12:23:37;3.67;;;3.38;;
46198;SDS011;31928;52.104;10.030;2022-08-25T12:29:36;4.70;;;4.10;;
46198;SDS011;31928;52.104;10.030;2022-08-25T12:43:39;3.97;;;3.55;;
46198;SDS011;31928;52.104;10.030;2022-08-25T12:48:53;5.03;;;4.40;;
46198;SDS011;31928;52.104;10.030;2022-08-25T12:51:25;5.55;;;4.70;;
46198;SDS011;31928;52.104;10.030;2022-08-25T12:56:57;4.30;;;4.00;;
46198;SDS011;31928;52.104;10.030;2022-08-25T13:02:08;5.25;;;4.15;;
46198;SDS011;31928;52.104;10.030;2022-08-25T13:05:04;4.47;;;3.67;;
46198;SDS011;31928;52.104;10.030;2022-08-25T13:18:15;5.13;;;4.22;;
46198;SDS011;31928;52.104;10.030;2022-08-25T13:20:48;4.32;;;3.92;;
46198;SDS011;31928;52.104;10.030;2022-08-25T13:23:25;5.20;;;4.53;;
46198;SDS011;31928;52.104;10.030;2022-08-25T13:25:54;4.53;;;4.07;;
46198;SDS011;31928;52.104;10.030;2022-08-25T13:28:28;4.28;;;3.88;;
46198;SDS011;31928;52.104;10.030;2022-08-25T13:31:02;4.18;;;3.78;;
46198;SDS011;31928;52.104;10.030;2022-08-25T13:33:31;7.75;;;4.20;;
46198;SDS011;31928;52.104;10.030;2022-08-25T13:35:59;4.63;;;3.90;;
46198;SDS011;31928;52.104;10.030;2022-08-25T13:38:46;5.85;;;4.00;;
46198;SDS011;31928;52.104;10.030;2022-08-25T13:41:19;4.97;;;4.00;;
46198;SDS011;31928;52.104;10.030;2022-08-25T13:43:54;4.53;;;3.92;;
46198;SDS011;31928;52.104;10.030;2022-08-25T13:46:27;6.03;;;4.10;;
46198;SDS011;31928;52.104;10.030;2022-08-25T13:49:06;5.35;;;4.13;;
46198;SDS011;31928;52.104;10.030;2022-08-25T13:51:34;3.53;;;3.22;;
46198;SDS011;31928;52.104;10.030;2022-08-25T13:54:03;4.32;;;3.92;;
46198;SDS011;31928;52.104;10.030;2022-08-25T13:56:36;4.45;;;4.05;;
46198;SDS011;31928;52.104;10.030;2022-08-25T13:59:17;3.85;;;3.35;;
46198;SDS011;31928;52.104;10.030;2022-08-25T14:01:48;4.45;;;4.05;;
46198;SDS011;31928;52.104;10.030;2022-08-25T14:04:25;4.93;;;3.85;;
46198;SDS011;31928;52.104;10.030;2022-08-25T14:07:31;4.80;;;4.10;;
46198;SDS011;31928;52.104;10.030;2022-08-25T14:10:10;4.03;;;3.72;;
46198;SDS011;31928;52.104;10.030;2022-08-25T14:27:13;6.05;;;3.78;;
46198;SDS011;31928;52.104;10.030;2022-08-25T14:29:40;4.88;;;3.70;;
46198;SDS011;31928;52.104;10.030;2022-08-25T14:32:07;5.45;;;4.18;;
46198;SDS011;31928;52.104;10.030;2022-08-25T14:34:35;5.00;;;4.50;;
46198;SDS011;31928;52.104;10.030;2022-08-25T14:37:05;4.60;;;4.20;;
46198;SDS011;31928;52.104;10.030;2022-08-25T14:39:40;4.05;;;3.65;;
46198;SDS011;31928;52.104;10.030;2022-08-25T14:42:09;4.75;;;4.10;;
46198;SDS011;31928;52.104;10.030;2022-08-25T14:44:36;6.60;;;4.30;;
46198;SDS011;31928;52.104;10.030;2022-08-25T14:47:04;4.40;;;3.95;;
46198;SDS011;31928;52.104;10.030;2022-08-25T14:49:34;3.90;;;3.60;;
46198;SDS011;31928;52.104;10.030;2022-08-25T14:52:05;4.70;;;3.97;;
46198;SDS011;31928;52.104;10.030;2022-08-25T14:54:34;6.70;;;4.30;;
46198;SDS011;31928;52.104;10.030;2022-08-25T14:57:03;4.28;;;3.75;;
46198;SDS011;31928;52.104;10.030;2022-08-25T14:59:33;4.63;;;4.22;;
46198;SDS011;31928;52.104;10.030;2022-08-25T15:02:00;4.03;;;3.72;;
46198;SDS011;31928;52.104;10.030;2022-08-25T15:04:27;4.43;;;4.03;;
46198;SDS011;31928;52.104;10.030;2022-08-25T15:06:56;5.68;;;4.38;;
46198;SDS011;31928;52.104;10.030;2022-08-25T15:09:28;5.85;;;3.83;;
46198;SDS011;31928;52.104;10.030;2022-08-25T15:11:58;5.57;;;4.45;;
46198;SDS011;31928;52.104;10.030;2022-08-25T15:14:25;4.88;;;4.22;;
46198;SDS011;31928;52.104;10.030;2022-08-25T15:16:58;4.65;;;3.90;;
46198;SDS011;31928;52.104;10.030;2022-08-25T15:19:26;5.50;;;4.47;;
46198;SDS011;31928;52.104;10.030;2022-08-25T15:21:53;4.82;;;4.32;;
46198;SDS011;31928;52.104;10.030;2022-08-25T15:24:25;4.53;;;4.05;;
46198;SDS011;31928;52.104;10.030;2022-08-25T15:27:11;5.60;;;4.47;;
46198;SDS011;31928;52.104;10.030;2022-08-25T15:29:40;5.28;;;4.63;;
46198;SDS011;31928;52.104;10.030;2022-08-25T15:32:07;4.88;;;4.45;;
46198;SDS011;31928;52.104;10.030;2022-08-25T15:34:34;6.20;;;4.35;;
46198;SDS011;31928;52.104;10.030;2022-08-25T15:37:12;4.88;;;4.20;;
46198;SDS011;31928;52.104;10.030;2022-08-25T15:39:40;4.38;;;3.97;;
46198;SDS011;31928;52.104;10.030;2022-08-25T15:42:10;6.38;;;4.05;;
46198;SDS011;31928;52.104;10.030;2022-08-25T15:44:37;5.38;;;4.88;;
46198;SDS011;31928;52.104;10.030;2022-08-25T15:47:06;5.38;;;4.10;;
46198;SDS011;31928;52.104;10.030;2022-08-25T15:49:37;4.85;;;3.95;;
46198;SDS011;31928;52.104;10.030;2022-08-25T15:52:04;4.60;;;4.20;;
46198;SDS011;31928;52.104;10.030;2022-08-25T15:54:31;5.05;;;4.55;;
46198;SDS011;31928;52.104;10.030;2022-08-25T15:56:58;6.28;;;4.35;;
46198;SDS011;31928;52.104;10.030;2022-08-25T15:59:25;5.00;;;4.20;;
46198;SDS011;31928;52.104;10.030;2022-08-25T16:01:53;4.53;;;4.13;;
46198;SDS011;31928;52.104;10.030;2022-08-25T16:04:21;4.63;;;4.20;;
46198;SDS011;31928;52.104;10.030;2022-08-25T16:06:49;4.70;;;4.30;;
46198;SDS011;31928;52.104;10.030;2022-08-25T16:09:17;4.88;;;4.38;;
46198;SDS011;31928;52.104;10.030;2022-08-25T16:11:48;5.03;;;3.80;;
46198;SDS011;31928;52.104;10.030;2022-08-25T16:14:22;9.63;;;4.88;;
46198;SDS011;31928;52.104;10.030;2022-08-25T16:16:48;4.35;;;3.88;;
46198;SDS011;31928;52.104;10.030;2022-08-25T16:19:16;5.47;;;4.20;;
46198;SDS011;31928;52.104;10.030;2022-08-25T16:21:43;5.50;;;4.25;;
46198;SDS011;31928;52.104;10.030;2022-08-25T16:24:13;4.70;;;3.78;;
46198;SDS011;31928;52.104;10.030;2022-08-25T16:26:39;4.88;;;4.20;;
46198;SDS011;31928;52.104;10.030;2022-08-25T16:29:13;5.00;;;4.40;;
46198;SDS011;31928;52.104;10.030;2022-08-25T16:35:10;4.30;;;4.00;;
46198;SDS011;31928;52.104;10.030;2022-08-25T16:37:36;6.95;;;5.05;;
46198;SDS011;31928;52.104;10.030;2022-08-25T16:40:05;4.65;;;4.25;;
46198;SDS011;31928;52.104;10.030;2022-08-25T16:42:33;4.60;;;4.20;;
46198;SDS011;31928;52.104;10.030;2022-08-25T16:45:00;5.20;;;4.70;;
46198;SDS011;31928;52.104;10.030;2022-08-25T16:47:26;7.40;;;3.97;;
46198;SDS011;31928;52.104;10.030;2022-08-25T16:49:53;6.63;;;5.05;;
46198;SDS011;31928;52.104;10.030;2022-08-25T16:52:20;5.57;;;4.40;;
46198;SDS011;31928;52.104;10.030;2022-08-25T16:55:09;6.85;;;5.05;;
46198;SDS011;31928;52.104;10.030;2022-08-25T16:57:40;4.82;;;3.90;;
46198;SDS011;31928;52.104;10.030;2022-08-25T17:00:14;3.65;;;3.33;;
46198;SDS011;31928;52.104;10.030;2022-08-25T17:02:44;5.65;;;4.25;;
46198;SDS011;31928;52.104;10.030;2022-08-25T17:05:10;7.22;;;4.57;;
46198;SDS011;31928;52.104;10.030;2022-08-25T17:07:37;4.47;;;3.88;;
46198;SDS011;31928;52.104;10.030;2022-08-25T17:10:04;4.47;;;3.92;;
46198;SDS011;31928;52.104;10.030;2022-08-25T17:12:37;5.75;;;4.30;;
46198;SDS011;31928;52.104;10.030;2022-08-25T17:15:05;5.68;;;4.18;;